Main page
METAR-TAF:

METAR-TAF

Airports :

McCook Ben Nelson Regional Airport

McCook, Nebraska, United States

latitude: 40-12-11N, longitude: 100-35-18W, elevation: 2578 ft

Current weather observation

The report was made 26 minutes ago, at 12:53 UTC
Wind 9 mph from the Southwest
Temperature 19°F
Humidity 93%
Pressure 30.04 in. Hg
Visibility: 7 miles
Clear sky

METAR: KMCK 221253Z AUTO 23008KT 7SM CLR M07/M08 A3004 RMK AO2 SLP195 T10671078

Time: 07:19 (13:19 UTC)

Forecast

The report was made 1 hour and 59 minutes ago, at 11:20 UTC
Forecast valid from 22 at 12 UTC to 23 at 12 UTC
Wind 7 mph from variable directions
Visibility: 6 miles
Broken clouds at a height of 25000 ft
Temporary
from 22 at 12 UTC to 22 at 14 UTC
Visibility: 6 miles
mist

TAF: KMCK 221120Z 2212/2312 VRB06KT P6SM BKN250 TEMPO 2212/2214 6SM BR

Weather observations and forecasts of more than 4000 airports (METAR and TAF reports).

The available stations are represented by yellow and red dots on the map.

Hover mouse over dot to see the name of the station.

Then click to see weather observations and forecasts.

To change the map : click on the green buttons with a black cross to zoom in, on the green button with a dash to zoom out, or on the green arrows for adjacent maps.


METAR-TAF: